createdAt,value
2019-05-17T00:00:18.810Z,98563.85
2019-05-17T00:02:47.318Z,98565.22
2019-05-17T00:05:17.788Z,98564.72
2019-05-17T00:07:47.470Z,98563.58
2019-05-17T00:10:17.385Z,98561.23
2019-05-17T00:12:47.121Z,98565.00
2019-05-17T00:15:16.928Z,98563.04
2019-05-17T00:17:46.962Z,98562.26
2019-05-17T00:20:17.430Z,98555.38
2019-05-17T00:22:47.107Z,98546.41
2019-05-17T00:25:17.609Z,98540.04
2019-05-17T00:27:47.373Z,98539.00
2019-05-17T00:30:17.766Z,98536.97
2019-05-17T00:32:47.617Z,98538.13
2019-05-17T00:35:17.791Z,98529.66
2019-05-17T00:37:46.717Z,98522.59
2019-05-17T00:40:16.687Z,98527.91
2019-05-17T00:42:46.641Z,98518.44
2019-05-17T00:45:17.293Z,98522.09
2019-05-17T00:47:46.873Z,98520.41
2019-05-17T00:50:16.984Z,98517.05
2019-05-17T00:52:47.550Z,98518.87
2019-05-17T00:55:17.555Z,98508.78
2019-05-17T00:57:47.496Z,98501.03
2019-05-17T01:00:17.341Z,98504.00
2019-05-17T01:02:46.776Z,98501.44
2019-05-17T01:05:17.196Z,98501.28
2019-05-17T01:07:47.031Z,98494.78
2019-05-17T01:10:16.616Z,98495.94
2019-05-17T01:12:45.269Z,98491.44
2019-05-17T01:15:16.576Z,98491.13
2019-05-17T01:17:47.104Z,98488.36
2019-05-17T01:20:17.144Z,98484.67
2019-05-17T01:22:47.489Z,98483.27
2019-05-17T01:25:17.119Z,98481.80
2019-05-17T01:27:47.505Z,98478.36
2019-05-17T01:30:17.558Z,98479.04
2019-05-17T01:32:46.557Z,98481.10
2019-05-17T01:35:16.828Z,98482.05
2019-05-17T01:37:47.469Z,98480.27
2019-05-17T01:40:17.591Z,98486.95
2019-05-17T01:42:46.679Z,98487.80
2019-05-17T01:45:16.691Z,98487.03
2019-05-17T01:47:47.534Z,98489.11
2019-05-17T01:50:17.497Z,98485.52
2019-05-17T01:52:46.397Z,98491.56
2019-05-17T01:55:17.204Z,98491.58
2019-05-17T01:57:47.393Z,98491.45
2019-05-17T02:00:17.546Z,98496.06
2019-05-17T02:02:53.701Z,98485.80
2019-05-17T02:05:22.243Z,98484.89
2019-05-17T02:07:50.818Z,98486.05
2019-05-17T02:10:19.637Z,98487.19
2019-05-17T02:12:49.091Z,98490.40
2019-05-17T02:15:18.201Z,98494.62
2019-05-17T02:17:47.055Z,98494.62
2019-05-17T02:20:17.074Z,98494.33
2019-05-17T02:22:47.461Z,98494.05
2019-05-17T02:25:17.772Z,98492.89
2019-05-17T02:27:46.276Z,98486.62
2019-05-17T02:30:15.501Z,98490.83
2019-05-17T02:32:44.970Z,98484.13
2019-05-17T02:35:15.090Z,98484.56
2019-05-17T02:37:44.005Z,98474.09
2019-05-17T02:40:14.449Z,98467.54
2019-05-17T02:42:43.743Z,98465.64
2019-05-17T02:45:13.435Z,98471.89
2019-05-17T02:47:43.729Z,98470.30
2019-05-17T02:50:13.353Z,98476.20
2019-05-17T02:52:43.797Z,98470.30
2019-05-17T02:55:13.096Z,98471.95
2019-05-17T02:57:43.242Z,98468.68
2019-05-17T03:00:13.639Z,98468.53
2019-05-17T03:02:43.451Z,98472.87
2019-05-17T03:05:13.138Z,98472.12
2019-05-17T03:07:44.096Z,98472.20
2019-05-17T03:10:22.767Z,98479.58
2019-05-17T03:12:44.421Z,98483.30
2019-05-17T03:15:13.315Z,98485.58
2019-05-17T03:17:43.404Z,98483.23
2019-05-17T03:20:13.730Z,98480.33
2019-05-17T03:22:43.956Z,98480.73
2019-05-17T03:25:13.936Z,98477.83
2019-05-17T03:27:43.250Z,98475.45
2019-05-17T03:30:17.161Z,98463.49
2019-05-17T03:32:47.888Z,98451.77
2019-05-17T03:35:17.284Z,98472.52
2019-05-17T03:37:44.837Z,98467.21
2019-05-17T03:40:34.787Z,98471.91
2019-05-17T03:42:44.541Z,98464.39
2019-05-17T03:45:13.892Z,98469.84
2019-05-17T03:47:44.621Z,98465.75
2019-05-17T03:50:13.809Z,98462.22
2019-05-17T03:52:44.442Z,98455.81
2019-05-17T03:55:13.593Z,98452.48
2019-05-17T03:57:44.014Z,98455.28
2019-05-17T04:00:13.472Z,98452.45
2019-05-17T04:02:44.532Z,98456.53
2019-05-17T04:05:13.038Z,98457.03
2019-05-17T04:07:43.418Z,98456.97
2019-05-17T04:10:15.040Z,98456.67
2019-05-17T04:12:44.181Z,98453.67
2019-05-17T04:15:14.675Z,98450.23
2019-05-17T04:17:44.258Z,98452.14
2019-05-17T04:20:13.990Z,98445.68
2019-05-17T04:22:44.201Z,98442.66
2019-05-17T04:25:13.843Z,98450.26
2019-05-17T04:27:43.811Z,98443.72
2019-05-17T04:30:13.112Z,98446.14
2019-05-17T04:32:44.167Z,98441.98
2019-05-17T04:35:13.501Z,98434.64
2019-05-17T04:37:44.616Z,98446.56
2019-05-17T04:40:14.073Z,98450.73
2019-05-17T04:42:44.032Z,98450.67
2019-05-17T04:45:13.394Z,98447.23
2019-05-17T04:47:44.515Z,98443.50
2019-05-17T04:50:13.490Z,98447.44
2019-05-17T04:52:43.019Z,98445.53
2019-05-17T04:55:13.564Z,98444.50
2019-05-17T04:57:44.057Z,98448.91
2019-05-17T05:00:13.511Z,98443.72
2019-05-17T05:02:43.604Z,98444.59
2019-05-17T05:05:13.917Z,98443.38
2019-05-17T05:07:43.324Z,98451.12
2019-05-17T05:10:14.007Z,98446.52
2019-05-17T05:12:43.878Z,98453.20
2019-05-17T05:15:12.890Z,98450.09
2019-05-17T05:17:42.600Z,98439.72
2019-05-17T05:20:13.267Z,98437.83
2019-05-17T05:22:42.875Z,98431.52
2019-05-17T05:25:12.498Z,98443.91
2019-05-17T05:27:42.676Z,98443.70
2019-05-17T05:30:12.167Z,98451.20
2019-05-17T05:32:42.791Z,98452.20
2019-05-17T05:35:12.373Z,98453.24
2019-05-17T05:37:42.423Z,98456.90
2019-05-17T05:40:12.620Z,98463.52
2019-05-17T05:42:42.709Z,98458.67
2019-05-17T05:45:12.360Z,98464.22
2019-05-17T05:47:42.474Z,98460.44
2019-05-17T05:50:12.697Z,98464.52
2019-05-17T05:52:42.247Z,98469.58
2019-05-17T05:55:12.339Z,98471.40
2019-05-17T05:57:42.118Z,98465.97
2019-05-17T06:00:13.443Z,98467.99
2019-05-17T06:02:42.270Z,98464.07
2019-05-17T06:05:14.675Z,98462.48
2019-05-17T06:07:42.444Z,98459.40
2019-05-17T06:10:12.933Z,98460.63
2019-05-17T06:12:43.446Z,98456.80
2019-05-17T06:15:12.995Z,98465.74
2019-05-17T06:17:42.775Z,98464.77
2019-05-17T06:20:12.282Z,98461.47
2019-05-17T06:22:42.769Z,98458.66
2019-05-17T06:25:14.871Z,98460.16
2019-05-17T06:27:41.697Z,98469.73
2019-05-17T06:30:12.587Z,98474.98
2019-05-17T06:32:43.246Z,98473.59
2019-05-17T06:35:12.634Z,98468.77
2019-05-17T06:37:42.265Z,98460.64
2019-05-17T06:40:13.104Z,98456.63
2019-05-17T06:42:45.280Z,98464.19
2019-05-17T06:45:13.129Z,98467.36
2019-05-17T06:47:42.668Z,98467.53
2019-05-17T06:50:14.333Z,98458.00
2019-05-17T06:52:43.479Z,98460.13
2019-05-17T06:55:13.031Z,98452.18
2019-05-17T06:57:43.376Z,98460.58
2019-05-17T07:00:19.750Z,98459.61
2019-05-17T07:02:43.741Z,98452.06
2019-05-17T07:05:14.096Z,98448.09
2019-05-17T07:07:42.646Z,98444.00
2019-05-17T07:10:12.267Z,98434.34
2019-05-17T07:12:54.999Z,98434.42
2019-05-17T07:15:11.625Z,98430.25
2019-05-17T07:17:40.385Z,98437.45
2019-05-17T07:20:10.317Z,98435.95
2019-05-17T07:22:40.839Z,98435.43
2019-05-17T07:25:10.726Z,98433.55
2019-05-17T07:27:45.336Z,98435.75
2019-05-17T07:30:11.103Z,98438.84
2019-05-17T07:32:40.598Z,98431.61
2019-05-17T07:35:10.825Z,98444.13
2019-05-17T07:37:39.926Z,98435.64
2019-05-17T07:40:10.847Z,98435.56
2019-05-17T07:42:39.715Z,98437.47
2019-05-17T07:45:10.091Z,98434.19
2019-05-17T07:47:40.447Z,98420.05
2019-05-17T07:50:11.497Z,98422.92
2019-05-17T07:52:40.103Z,98416.83
2019-05-17T07:55:10.975Z,98411.38
2019-05-17T07:57:41.012Z,98414.84
2019-05-17T08:00:10.488Z,98411.45
2019-05-17T08:02:40.209Z,98409.71
2019-05-17T08:05:10.520Z,98411.02
2019-05-17T08:07:40.279Z,98407.17
2019-05-17T08:10:11.048Z,98407.69
2019-05-17T08:12:41.012Z,98410.08
2019-05-17T08:15:11.183Z,98406.98
2019-05-17T08:17:40.037Z,98409.48
2019-05-17T08:20:10.342Z,98413.35
2019-05-17T08:22:40.118Z,98411.09
2019-05-17T08:25:10.251Z,98410.59
2019-05-17T08:27:40.489Z,98407.53
2019-05-17T08:30:11.940Z,98401.60
2019-05-17T08:32:40.612Z,98393.53
2019-05-17T08:35:11.332Z,98395.02
2019-05-17T08:37:42.313Z,98392.77
2019-05-17T08:40:10.782Z,98386.02
2019-05-17T08:42:40.758Z,98387.02
2019-05-17T08:45:09.966Z,98380.64
2019-05-17T08:47:39.633Z,98379.77
2019-05-17T08:50:11.255Z,98381.91
2019-05-17T08:52:40.244Z,98384.73
2019-05-17T08:55:09.836Z,98376.17
2019-05-17T08:57:39.960Z,98383.16
2019-05-17T09:00:10.692Z,98376.28
2019-05-17T09:02:40.962Z,98373.91
2019-05-17T09:05:10.221Z,98375.35
2019-05-17T09:07:40.111Z,98383.94
2019-05-17T09:10:09.925Z,98375.66
2019-05-17T09:12:40.914Z,98376.14
2019-05-17T09:15:10.673Z,98368.53
2019-05-17T09:17:39.847Z,98372.35
2019-05-17T09:20:10.581Z,98368.42
2019-05-17T09:22:39.572Z,98365.41
2019-05-17T09:25:13.516Z,98362.08
2019-05-17T09:27:39.760Z,98357.85
2019-05-17T09:30:10.707Z,98356.64
2019-05-17T09:32:40.502Z,98351.72
2019-05-17T09:35:09.981Z,98343.96
2019-05-17T09:37:41.377Z,98341.55
2019-05-17T09:40:09.658Z,98346.99
2019-05-17T09:42:40.769Z,98338.00
2019-05-17T09:45:09.594Z,98338.41
2019-05-17T09:47:39.697Z,98335.41
2019-05-17T09:50:10.006Z,98338.02
2019-05-17T09:52:40.518Z,98335.84
2019-05-17T09:55:09.968Z,98333.46
2019-05-17T09:57:40.779Z,98328.03
2019-05-17T10:00:10.159Z,98325.70
2019-05-17T10:02:40.229Z,98320.02
2019-05-17T10:05:10.681Z,98317.86
2019-05-17T10:07:40.283Z,98308.70
2019-05-17T10:10:10.515Z,98314.28
2019-05-17T10:12:40.333Z,98314.86
2019-05-17T10:15:10.366Z,98316.70
2019-05-17T10:17:38.983Z,98311.11
2019-05-17T10:20:10.499Z,98311.17
2019-05-17T10:22:40.215Z,98305.98
2019-05-17T10:25:09.679Z,98306.73
2019-05-17T10:27:40.421Z,98308.95
2019-05-17T10:30:10.563Z,98307.03
2019-05-17T10:32:40.715Z,98301.89
2019-05-17T10:35:10.247Z,98303.52
2019-05-17T10:37:40.647Z,98299.47
2019-05-17T10:40:10.740Z,98295.67
2019-05-17T10:42:39.819Z,98301.42
2019-05-17T10:45:10.865Z,98303.11
2019-05-17T10:47:39.990Z,98299.66
2019-05-17T10:50:10.889Z,98297.57
2019-05-17T10:52:41.021Z,98299.84
2019-05-17T10:55:10.795Z,98297.02
2019-05-17T10:57:39.390Z,98303.42
2019-05-17T11:00:10.075Z,98295.92
2019-05-17T11:02:38.786Z,98300.20
2019-05-17T11:05:07.621Z,98296.00
2019-05-17T11:07:36.095Z,98305.20
2019-05-17T11:10:06.111Z,98302.53
2019-05-17T11:12:34.579Z,98296.67
2019-05-17T11:15:11.009Z,98302.02
2019-05-17T11:17:33.942Z,98305.28
2019-05-17T11:20:02.536Z,98303.69
2019-05-17T11:22:31.004Z,98298.52
2019-05-17T11:24:59.493Z,98296.86
2019-05-17T11:27:27.995Z,98298.70
2019-05-17T11:29:56.448Z,98299.92
2019-05-17T11:32:24.945Z,98294.02
2019-05-17T11:34:53.423Z,98294.77
2019-05-17T11:37:21.929Z,98288.00
2019-05-17T11:39:50.401Z,98288.83
2019-05-17T11:42:18.904Z,98291.68
2019-05-17T11:44:47.384Z,98289.13
2019-05-17T11:47:15.904Z,98287.11
2019-05-17T11:49:44.377Z,98285.36
2019-05-17T11:52:12.873Z,98290.59
2019-05-17T11:54:41.360Z,98282.23
2019-05-17T11:57:12.325Z,98283.34
2019-05-17T11:59:40.126Z,98287.67
2019-05-17T12:02:08.656Z,98285.45
2019-05-17T12:04:37.503Z,98279.07
2019-05-17T12:07:06.253Z,98284.94
2019-05-17T12:09:37.803Z,98284.13
2019-05-17T12:12:05.174Z,98281.94
2019-05-17T12:14:34.765Z,98285.37
2019-05-17T12:17:05.380Z,98282.47
2019-05-17T12:19:37.263Z,98283.20
2019-05-17T12:22:07.434Z,98290.28
2019-05-17T12:24:36.457Z,98289.45
2019-05-17T12:27:05.432Z,98272.56
2019-05-17T12:29:34.340Z,98277.68
2019-05-17T12:32:03.381Z,98269.03
2019-05-17T12:34:31.919Z,98269.90
2019-05-17T12:37:00.418Z,98273.41
2019-05-17T12:39:28.901Z,98266.91
2019-05-17T12:41:57.462Z,98273.91
2019-05-17T12:44:26.089Z,98264.94
2019-05-17T12:46:54.605Z,98262.13
2019-05-17T12:49:23.109Z,98260.79
2019-05-17T12:51:51.622Z,98256.80
2019-05-17T12:54:20.100Z,98256.33
2019-05-17T12:56:48.602Z,98254.20
2019-05-17T12:59:17.151Z,98253.84
2019-05-17T13:01:45.704Z,98255.06
2019-05-17T13:04:14.202Z,98248.61
2019-05-17T13:06:42.702Z,98252.42
2019-05-17T13:09:11.250Z,98249.39
2019-05-17T13:11:39.758Z,98255.20
2019-05-17T13:14:08.247Z,98253.38
2019-05-17T13:16:37.530Z,98252.52
2019-05-17T13:19:05.997Z,98257.13
2019-05-17T13:21:34.573Z,98249.16
2019-05-17T13:24:03.051Z,98254.83
2019-05-17T13:26:31.544Z,98249.59
2019-05-17T13:29:00.021Z,98240.69
2019-05-17T13:31:28.542Z,98250.28
2019-05-17T13:33:57.026Z,98248.03
2019-05-17T13:36:25.531Z,98240.51
2019-05-17T13:38:54.015Z,98242.54
2019-05-17T13:41:22.514Z,98242.88
2019-05-17T13:43:50.994Z,98239.58
2019-05-17T13:46:32.231Z,98239.14
2019-05-17T13:48:49.851Z,98236.37
2019-05-17T13:51:18.345Z,98238.23
2019-05-17T13:53:46.816Z,98235.38
2019-05-17T13:56:15.324Z,98224.89
2019-05-17T13:58:43.801Z,98226.23
2019-05-17T14:01:12.293Z,98223.30
2019-05-17T14:03:40.776Z,98226.18
2019-05-17T14:06:09.323Z,98220.76
2019-05-17T14:08:37.756Z,98220.94
2019-05-17T14:11:06.251Z,98217.95
2019-05-17T14:13:34.743Z,98214.07
2019-05-17T14:16:03.235Z,98222.97
2019-05-17T14:18:31.705Z,98217.22
2019-05-17T14:21:00.180Z,98214.55
2019-05-17T14:23:30.097Z,98222.05
2019-05-17T14:25:59.425Z,98229.66
2019-05-17T14:28:27.904Z,98227.19
2019-05-17T14:30:56.380Z,98225.33
2019-05-17T14:33:24.892Z,98229.68
2019-05-17T14:35:53.351Z,98228.38
2019-05-17T14:38:21.857Z,98231.22
2019-05-17T14:41:08.133Z,98219.80
2019-05-17T14:43:20.547Z,98217.98
2019-05-17T14:45:49.017Z,98218.53
2019-05-17T14:48:17.516Z,98210.97
2019-05-17T14:50:45.995Z,98210.17
2019-05-17T14:53:14.504Z,98205.58
2019-05-17T14:55:42.972Z,98207.31
2019-05-17T14:58:11.484Z,98207.50
2019-05-17T15:00:39.944Z,98207.75
2019-05-17T15:03:08.447Z,98206.38
2019-05-17T15:05:36.934Z,98207.97
2019-05-17T15:08:05.437Z,98210.92
2019-05-17T15:10:33.985Z,98204.75
2019-05-17T15:13:02.497Z,98200.70
2019-05-17T15:15:30.961Z,98205.79
2019-05-17T15:17:59.710Z,98205.75
2019-05-17T15:20:28.184Z,98207.12
2019-05-17T15:22:56.677Z,98205.27
2019-05-17T15:25:25.374Z,98191.01
2019-05-17T15:27:54.175Z,98197.81
2019-05-17T15:30:22.916Z,98193.22
2019-05-17T15:32:51.529Z,98187.89
2019-05-17T15:35:20.205Z,98184.36
2019-05-17T15:37:48.967Z,98184.88
2019-05-17T15:40:17.861Z,98185.66
2019-05-17T15:42:46.630Z,98186.57
2019-05-17T15:45:15.443Z,98182.48
2019-05-17T15:47:44.159Z,98179.17
2019-05-17T15:50:12.934Z,98169.47
2019-05-17T15:52:41.670Z,98172.28
2019-05-17T15:55:10.650Z,98169.98
2019-05-17T15:57:39.400Z,98169.61
2019-05-17T16:00:08.562Z,98169.94
2019-05-17T16:02:37.270Z,98175.45
2019-05-17T16:05:06.342Z,98173.44
2019-05-17T16:07:35.098Z,98175.71
2019-05-17T16:10:06.311Z,98163.78
2019-05-17T16:12:34.815Z,98170.55
2019-05-17T16:15:04.359Z,98163.49
2019-05-17T16:17:32.864Z,98164.86
2019-05-17T16:20:01.370Z,98164.52
2019-05-17T16:22:29.845Z,98164.66
2019-05-17T16:24:58.316Z,98165.52
2019-05-17T16:27:26.828Z,98166.97
2019-05-17T16:29:55.305Z,98163.53
2019-05-17T16:32:23.816Z,98163.84
2019-05-17T16:34:52.552Z,98155.78
2019-05-17T16:37:21.120Z,98162.06
2019-05-17T16:39:49.738Z,98158.26
2019-05-17T16:42:18.222Z,98156.39
2019-05-17T16:44:46.720Z,98152.64
2019-05-17T16:47:15.198Z,98158.55
2019-05-17T16:49:43.695Z,98154.20
2019-05-17T16:52:12.186Z,98154.23
2019-05-17T16:54:40.681Z,98153.97
2019-05-17T16:57:09.162Z,98155.06
2019-05-17T16:59:37.742Z,98156.70
2019-05-17T17:02:06.361Z,98155.18
2019-05-17T17:04:34.869Z,98161.50
2019-05-17T17:07:03.348Z,98157.13
2019-05-17T17:09:31.947Z,98156.52
2019-05-17T17:12:00.505Z,98153.63
2019-05-17T17:14:29.033Z,98159.41
2019-05-17T17:16:57.512Z,98161.22
2019-05-17T17:19:26.092Z,98163.57
2019-05-17T17:21:54.572Z,98162.30
2019-05-17T17:24:23.084Z,98162.14
2019-05-17T17:26:51.590Z,98163.37
2019-05-17T17:29:20.103Z,98167.20
2019-05-17T17:31:48.590Z,98168.22
2019-05-17T17:34:17.099Z,98165.96
2019-05-17T17:36:45.584Z,98164.08
2019-05-17T17:39:14.129Z,98162.66
2019-05-17T17:41:42.616Z,98161.17
2019-05-17T17:44:11.118Z,98157.17
2019-05-17T17:46:39.603Z,98159.98
2019-05-17T17:49:08.111Z,98157.36
2019-05-17T17:51:36.766Z,98159.53
2019-05-17T17:54:05.342Z,98165.45
2019-05-17T17:56:33.890Z,98163.65
2019-05-17T17:59:02.406Z,98165.20
2019-05-17T18:01:30.881Z,98167.25
2019-05-17T18:03:59.388Z,98168.02
2019-05-17T18:06:27.896Z,98157.02
2019-05-17T18:08:56.413Z,98159.77
2019-05-17T18:11:24.887Z,98167.34
2019-05-17T18:13:53.402Z,98161.08
2019-05-17T18:16:21.877Z,98163.30
2019-05-17T18:18:50.416Z,98166.59
2019-05-17T18:21:18.885Z,98172.77
2019-05-17T18:23:47.361Z,98166.99
2019-05-17T18:26:15.895Z,98172.05
2019-05-17T18:28:44.376Z,98178.42
2019-05-17T18:31:12.901Z,98184.52
2019-05-17T18:33:41.379Z,98181.11
2019-05-17T18:36:09.888Z,98179.78
2019-05-17T18:38:38.519Z,98185.36
2019-05-17T18:41:07.104Z,98198.05
2019-05-17T18:43:35.734Z,98201.46
2019-05-17T18:46:04.394Z,98195.11
2019-05-17T18:48:32.945Z,98196.69
2019-05-17T18:51:01.453Z,98201.38
2019-05-17T18:53:29.994Z,98201.62
2019-05-17T18:55:58.583Z,98203.94
2019-05-17T18:58:27.073Z,98203.35
2019-05-17T19:00:55.649Z,98209.59
2019-05-17T19:03:24.201Z,98209.26
2019-05-17T19:05:52.778Z,98211.10
2019-05-17T19:08:21.282Z,98209.42
2019-05-17T19:10:49.799Z,98222.45
2019-05-17T19:13:18.357Z,98214.23
2019-05-17T19:15:46.863Z,98217.47
2019-05-17T19:18:15.415Z,98215.81
2019-05-17T19:20:43.991Z,98214.92
2019-05-17T19:23:12.479Z,98219.66
2019-05-17T19:25:41.018Z,98220.94
2019-05-17T19:28:09.554Z,98233.84
2019-05-17T19:30:38.066Z,98229.16
2019-05-17T19:33:06.914Z,98232.71
2019-05-17T19:35:35.420Z,98238.13
2019-05-17T19:38:04.567Z,98235.48
2019-05-17T19:40:33.159Z,98236.52
2019-05-17T19:43:01.630Z,98240.27
2019-05-17T19:45:30.140Z,98241.28
2019-05-17T19:47:58.641Z,98243.52
2019-05-17T19:50:27.141Z,98237.69
2019-05-17T19:52:55.621Z,98234.98
2019-05-17T19:55:24.133Z,98236.43
2019-05-17T19:57:52.611Z,98228.80
2019-05-17T20:00:22.526Z,98243.23
2019-05-17T20:02:51.000Z,98233.22
2019-05-17T20:05:19.579Z,98232.67
2019-05-17T20:07:48.059Z,98236.45
2019-05-17T20:10:17.714Z,98229.56
2019-05-17T20:12:46.265Z,98227.52
2019-05-17T20:15:17.812Z,98223.66
2019-05-17T20:17:45.208Z,98230.23
2019-05-17T20:20:14.027Z,98227.94
2019-05-17T20:22:42.532Z,98230.23
2019-05-17T20:25:11.347Z,98232.86
2019-05-17T20:27:39.930Z,98234.78
2019-05-17T20:30:09.445Z,98231.98
2019-05-17T20:32:38.062Z,98230.13
2019-05-17T20:35:07.779Z,98229.67
2019-05-17T20:37:36.289Z,98232.50
2019-05-17T20:40:06.937Z,98232.77
2019-05-17T20:42:35.444Z,98230.07
2019-05-17T20:45:08.012Z,98223.10
2019-05-17T20:47:36.521Z,98228.05
2019-05-17T20:50:08.865Z,98230.34
2019-05-17T20:52:37.369Z,98230.11
2019-05-17T20:55:06.982Z,98231.89
2019-05-17T20:57:35.486Z,98229.11
2019-05-17T21:00:05.959Z,98234.83
2019-05-17T21:02:34.498Z,98227.27
2019-05-17T21:05:03.102Z,98228.01
2019-05-17T21:07:31.605Z,98230.70
2019-05-17T21:10:00.089Z,98224.06
2019-05-17T21:12:28.596Z,98224.02
2019-05-17T21:14:57.084Z,98217.83
2019-05-17T21:17:25.579Z,98215.42
2019-05-17T21:19:54.064Z,98211.27
2019-05-17T21:22:22.565Z,98213.16
2019-05-17T21:24:51.043Z,98216.16
2019-05-17T21:27:19.540Z,98214.50
2019-05-17T21:29:48.017Z,98216.13
2019-05-17T21:32:16.531Z,98217.44
2019-05-17T21:34:45.024Z,98214.53
2019-05-17T21:37:13.530Z,98214.99
2019-05-17T21:39:42.193Z,98214.90
2019-05-17T21:42:11.510Z,98213.22
2019-05-17T21:44:40.038Z,98211.05
2019-05-17T21:47:08.646Z,98211.48
2019-05-17T21:49:37.142Z,98208.30
2019-05-17T21:52:06.113Z,98211.30
2019-05-17T21:54:34.594Z,98212.10
2019-05-17T21:57:03.108Z,98207.75
2019-05-17T21:59:31.652Z,98196.97
2019-05-17T22:02:00.699Z,98198.87
2019-05-17T22:04:29.185Z,98195.88
2019-05-17T22:06:57.694Z,98196.16
2019-05-17T22:09:26.172Z,98195.05
2019-05-17T22:11:59.032Z,98199.16
2019-05-17T22:14:27.515Z,98199.45
2019-05-17T22:16:56.024Z,98203.27
2019-05-17T22:19:24.509Z,98203.27
2019-05-17T22:21:52.987Z,98200.76
2019-05-17T22:24:21.493Z,98206.47
2019-05-17T22:26:49.976Z,98211.50
2019-05-17T22:29:18.484Z,98216.07
2019-05-17T22:31:46.963Z,98218.30
2019-05-17T22:34:15.474Z,98214.75
2019-05-17T22:36:43.957Z,98213.69
2019-05-17T22:39:12.464Z,98209.78
2019-05-17T22:41:40.947Z,98206.25
2019-05-17T22:44:09.462Z,98209.28
2019-05-17T22:46:37.939Z,98211.20
2019-05-17T22:49:06.473Z,98210.80
2019-05-17T22:51:34.938Z,98218.31
2019-05-17T22:54:03.519Z,98223.18
2019-05-17T22:56:32.002Z,98218.84
2019-05-17T22:59:00.508Z,98216.45
2019-05-17T23:01:29.002Z,98214.34
2019-05-17T23:03:57.501Z,98215.44
2019-05-17T23:06:25.991Z,98218.05
2019-05-17T23:08:54.519Z,98214.15
2019-05-17T23:11:23.237Z,98211.48
2019-05-17T23:13:51.735Z,98202.01
2019-05-17T23:16:20.214Z,98206.61
2019-05-17T23:19:06.020Z,98211.61
2019-05-17T23:21:34.497Z,98204.86
2019-05-17T23:24:03.010Z,98208.14
2019-05-17T23:26:31.552Z,98208.52
2019-05-17T23:29:00.166Z,98206.92
2019-05-17T23:31:28.687Z,98205.55
2019-05-17T23:33:57.191Z,98203.81
2019-05-17T23:36:25.676Z,98203.70
2019-05-17T23:38:54.173Z,98203.36
2019-05-17T23:41:22.698Z,98203.86
2019-05-17T23:43:51.177Z,98206.16
2019-05-17T23:46:19.661Z,98211.56
2019-05-17T23:48:48.169Z,98212.47
2019-05-17T23:51:16.648Z,98213.77
2019-05-17T23:53:45.160Z,98215.44
2019-05-17T23:56:13.640Z,98217.71
2019-05-17T23:58:42.154Z,98220.50
